LDPL/PUY METAR and TAF weather

Enter ICAO airport designator
Station Type Date Time Source
LDPL METAR 2022/06/28 14:00 UTC NOAA

LDPL 281400Z 32007KT 280V340 CAVOK 33/13 Q1014 NOSIG


Station Type Date Time Source
LDPL Decoded METAR 2022/06/28 14:00 UTC NOAA

Pula Aerodrome, Croatia (LDPL) 45-54N 013-55E 63M
Jun 28, 2022 - 10:00 AM EDT / 2022.06.28 1400 UTC
Wind: from the NW (320 degrees) at 8 MPH (7 KT) (direction variable):0
Visibility: greater than 7 mile(s):0
Temperature: 91 F (33 C)
Dew Point: 55 F (13 C)
Relative Humidity: 29%
Pressure (altimeter): 29.94 in. Hg (1014 hPa)
ob: LDPL 281400Z 32007KT 280V340 CAVOK 33/13 Q1014 NOSIG
cycle: 14

Station Type Date Time Source
LDPL TAF 2022/06/28 12:27 UTC NOAA

TAF LDPL 281125Z 2812/2912 12008KT CAVOK TX35/2812Z TN22/2903Z PROB30
TEMPO 2812/2816 24008KT
BECMG 2908/2910 26008KT

Example: see airport list